sensor_id;sensor_type;location;lat;lon;timestamp;temperature;humidity
439;DHT22;206;48.782;9.252;2024-01-27T00:01:50;5.60;45.60
439;DHT22;206;48.782;9.252;2024-01-27T00:04:16;5.50;45.90
439;DHT22;206;48.782;9.252;2024-01-27T00:06:42;5.50;46.00
439;DHT22;206;48.782;9.252;2024-01-27T00:09:07;5.50;46.50
439;DHT22;206;48.782;9.252;2024-01-27T00:11:33;5.50;45.80
439;DHT22;206;48.782;9.252;2024-01-27T00:13:59;5.50;46.80
439;DHT22;206;48.782;9.252;2024-01-27T00:16:25;5.50;45.90
439;DHT22;206;48.782;9.252;2024-01-27T00:18:50;5.40;45.70
439;DHT22;206;48.782;9.252;2024-01-27T00:21:16;5.40;45.70
439;DHT22;206;48.782;9.252;2024-01-27T00:23:42;5.30;45.00
439;DHT22;206;48.782;9.252;2024-01-27T00:26:07;5.20;45.60
439;DHT22;206;48.782;9.252;2024-01-27T00:28:33;5.20;46.30
439;DHT22;206;48.782;9.252;2024-01-27T00:30:58;5.20;46.70
439;DHT22;206;48.782;9.252;2024-01-27T00:33:24;5.20;47.10
439;DHT22;206;48.782;9.252;2024-01-27T00:35:51;5.10;47.50
439;DHT22;206;48.782;9.252;2024-01-27T00:38:16;5.10;47.40
439;DHT22;206;48.782;9.252;2024-01-27T00:40:42;5.10;47.40
439;DHT22;206;48.782;9.252;2024-01-27T00:43:08;5.10;47.30
439;DHT22;206;48.782;9.252;2024-01-27T00:45:33;5.00;47.00
439;DHT22;206;48.782;9.252;2024-01-27T00:47:59;5.00;47.40
439;DHT22;206;48.782;9.252;2024-01-27T00:50:25;5.10;47.60
439;DHT22;206;48.782;9.252;2024-01-27T00:52:50;5.00;48.40
439;DHT22;206;48.782;9.252;2024-01-27T00:55:16;5.00;49.10
439;DHT22;206;48.782;9.252;2024-01-27T00:57:42;5.10;48.50
439;DHT22;206;48.782;9.252;2024-01-27T01:00:09;5.10;47.70
439;DHT22;206;48.782;9.252;2024-01-27T01:02:36;5.10;47.60
439;DHT22;206;48.782;9.252;2024-01-27T01:05:01;5.10;48.10
439;DHT22;206;48.782;9.252;2024-01-27T01:07:29;5.00;48.60
439;DHT22;206;48.782;9.252;2024-01-27T01:09:55;5.00;48.30
439;DHT22;206;48.782;9.252;2024-01-27T01:12:20;4.90;48.30
439;DHT22;206;48.782;9.252;2024-01-27T01:14:46;4.90;48.40
439;DHT22;206;48.782;9.252;2024-01-27T01:17:12;4.90;48.70
439;DHT22;206;48.782;9.252;2024-01-27T01:19:38;4.90;48.90
439;DHT22;206;48.782;9.252;2024-01-27T01:22:04;4.90;48.90
439;DHT22;206;48.782;9.252;2024-01-27T01:24:30;4.90;48.80
439;DHT22;206;48.782;9.252;2024-01-27T01:26:55;4.80;49.30
439;DHT22;206;48.782;9.252;2024-01-27T01:29:21;4.70;50.30
439;DHT22;206;48.782;9.252;2024-01-27T01:31:47;4.70;51.10
439;DHT22;206;48.782;9.252;2024-01-27T01:34:13;4.70;51.50
439;DHT22;206;48.782;9.252;2024-01-27T01:36:39;4.70;51.00
439;DHT22;206;48.782;9.252;2024-01-27T01:39:06;4.60;49.90
439;DHT22;206;48.782;9.252;2024-01-27T01:41:32;4.50;49.80
439;DHT22;206;48.782;9.252;2024-01-27T01:43:57;4.50;49.90
439;DHT22;206;48.782;9.252;2024-01-27T01:46:23;4.40;50.50
439;DHT22;206;48.782;9.252;2024-01-27T01:48:49;4.40;51.20
439;DHT22;206;48.782;9.252;2024-01-27T01:51:16;4.40;51.90
439;DHT22;206;48.782;9.252;2024-01-27T01:53:43;4.40;52.00
439;DHT22;206;48.782;9.252;2024-01-27T01:56:10;4.30;51.60
439;DHT22;206;48.782;9.252;2024-01-27T01:58:38;4.30;51.40
439;DHT22;206;48.782;9.252;2024-01-27T02:01:04;4.20;51.40
439;DHT22;206;48.782;9.252;2024-01-27T02:03:30;4.20;51.70
439;DHT22;206;48.782;9.252;2024-01-27T02:05:55;4.20;51.90
439;DHT22;206;48.782;9.252;2024-01-27T02:08:21;4.10;52.00
439;DHT22;206;48.782;9.252;2024-01-27T02:10:47;4.10;52.70
439;DHT22;206;48.782;9.252;2024-01-27T02:13:20;4.10;53.00
439;DHT22;206;48.782;9.252;2024-01-27T02:15:46;4.00;53.60
439;DHT22;206;48.782;9.252;2024-01-27T02:18:12;4.00;53.90
439;DHT22;206;48.782;9.252;2024-01-27T02:20:38;4.00;54.10
439;DHT22;206;48.782;9.252;2024-01-27T02:23:04;4.00;54.00
439;DHT22;206;48.782;9.252;2024-01-27T02:25:34;4.00;53.60
439;DHT22;206;48.782;9.252;2024-01-27T02:28:00;4.00;53.30
439;DHT22;206;48.782;9.252;2024-01-27T02:30:26;4.00;53.60
439;DHT22;206;48.782;9.252;2024-01-27T02:32:52;4.00;53.80
439;DHT22;206;48.782;9.252;2024-01-27T02:35:17;3.90;53.40
439;DHT22;206;48.782;9.252;2024-01-27T02:37:43;4.00;54.00
439;DHT22;206;48.782;9.252;2024-01-27T02:40:09;3.90;54.00
439;DHT22;206;48.782;9.252;2024-01-27T02:42:36;3.90;54.00
439;DHT22;206;48.782;9.252;2024-01-27T02:45:02;3.90;54.00
439;DHT22;206;48.782;9.252;2024-01-27T02:47:28;3.80;53.90
439;DHT22;206;48.782;9.252;2024-01-27T02:49:54;3.80;53.90
439;DHT22;206;48.782;9.252;2024-01-27T02:52:19;3.80;53.90
439;DHT22;206;48.782;9.252;2024-01-27T02:54:45;3.70;53.80
439;DHT22;206;48.782;9.252;2024-01-27T02:57:11;3.70;54.40
439;DHT22;206;48.782;9.252;2024-01-27T02:59:36;3.70;55.10
439;DHT22;206;48.782;9.252;2024-01-27T03:02:04;3.80;55.70
439;DHT22;206;48.782;9.252;2024-01-27T03:04:30;3.80;55.20
439;DHT22;206;48.782;9.252;2024-01-27T03:06:55;3.70;54.90
439;DHT22;206;48.782;9.252;2024-01-27T03:09:21;3.70;54.90
439;DHT22;206;48.782;9.252;2024-01-27T03:11:47;3.70;55.10
439;DHT22;206;48.782;9.252;2024-01-27T03:14:12;3.70;55.30
439;DHT22;206;48.782;9.252;2024-01-27T03:16:38;3.70;55.50
439;DHT22;206;48.782;9.252;2024-01-27T03:19:04;3.70;55.60
439;DHT22;206;48.782;9.252;2024-01-27T03:21:29;3.70;56.40
439;DHT22;206;48.782;9.252;2024-01-27T03:23:55;3.70;57.50
439;DHT22;206;48.782;9.252;2024-01-27T03:26:20;3.70;58.10
439;DHT22;206;48.782;9.252;2024-01-27T03:28:46;3.70;58.40
439;DHT22;206;48.782;9.252;2024-01-27T03:31:12;3.70;59.00
439;DHT22;206;48.782;9.252;2024-01-27T03:33:37;3.70;59.60
439;DHT22;206;48.782;9.252;2024-01-27T03:36:03;3.70;59.90
439;DHT22;206;48.782;9.252;2024-01-27T03:38:34;3.70;60.60
439;DHT22;206;48.782;9.252;2024-01-27T03:41:02;3.70;60.90
439;DHT22;206;48.782;9.252;2024-01-27T03:43:27;3.70;60.90
439;DHT22;206;48.782;9.252;2024-01-27T03:45:53;3.70;60.90
439;DHT22;206;48.782;9.252;2024-01-27T03:48:18;3.80;60.00
439;DHT22;206;48.782;9.252;2024-01-27T03:50:44;3.70;59.70
439;DHT22;206;48.782;9.252;2024-01-27T03:53:10;3.70;60.20
439;DHT22;206;48.782;9.252;2024-01-27T03:55:35;3.70;60.30
439;DHT22;206;48.782;9.252;2024-01-27T03:58:01;3.70;59.90
439;DHT22;206;48.782;9.252;2024-01-27T04:00:27;3.70;59.90
439;DHT22;206;48.782;9.252;2024-01-27T04:02:55;3.70;59.90
439;DHT22;206;48.782;9.252;2024-01-27T04:05:20;3.70;59.80
439;DHT22;206;48.782;9.252;2024-01-27T04:07:46;3.70;59.90
439;DHT22;206;48.782;9.252;2024-01-27T04:10:11;3.60;60.00
439;DHT22;206;48.782;9.252;2024-01-27T04:12:37;3.60;60.00
439;DHT22;206;48.782;9.252;2024-01-27T04:15:03;3.60;60.50
439;DHT22;206;48.782;9.252;2024-01-27T04:17:28;3.60;60.10
439;DHT22;206;48.782;9.252;2024-01-27T04:20:03;3.60;60.00
439;DHT22;206;48.782;9.252;2024-01-27T04:22:30;3.50;60.40
439;DHT22;206;48.782;9.252;2024-01-27T04:24:55;3.50;60.10
439;DHT22;206;48.782;9.252;2024-01-27T04:27:21;3.50;60.20
439;DHT22;206;48.782;9.252;2024-01-27T04:29:46;3.50;60.70
439;DHT22;206;48.782;9.252;2024-01-27T04:32:12;3.50;60.00
439;DHT22;206;48.782;9.252;2024-01-27T04:34:38;3.50;59.60
439;DHT22;206;48.782;9.252;2024-01-27T04:37:04;3.40;58.20
439;DHT22;206;48.782;9.252;2024-01-27T04:39:30;3.40;58.60
439;DHT22;206;48.782;9.252;2024-01-27T04:41:55;3.40;59.20
439;DHT22;206;48.782;9.252;2024-01-27T04:44:21;3.40;59.50
439;DHT22;206;48.782;9.252;2024-01-27T04:46:47;3.30;59.40
439;DHT22;206;48.782;9.252;2024-01-27T04:49:14;3.30;59.40
439;DHT22;206;48.782;9.252;2024-01-27T04:51:40;3.30;59.60
439;DHT22;206;48.782;9.252;2024-01-27T04:54:06;3.30;60.00
439;DHT22;206;48.782;9.252;2024-01-27T04:56:31;3.30;60.80
439;DHT22;206;48.782;9.252;2024-01-27T04:58:57;3.20;60.60
439;DHT22;206;48.782;9.252;2024-01-27T05:01:23;3.20;61.90
439;DHT22;206;48.782;9.252;2024-01-27T05:03:48;3.10;62.70
439;DHT22;206;48.782;9.252;2024-01-27T05:06:14;3.20;62.70
439;DHT22;206;48.782;9.252;2024-01-27T05:08:39;3.20;62.70
439;DHT22;206;48.782;9.252;2024-01-27T05:11:06;3.20;62.70
439;DHT22;206;48.782;9.252;2024-01-27T05:13:31;3.10;62.70
439;DHT22;206;48.782;9.252;2024-01-27T05:15:57;3.10;62.70
439;DHT22;206;48.782;9.252;2024-01-27T05:18:26;3.10;62.70
439;DHT22;206;48.782;9.252;2024-01-27T05:20:52;3.10;62.20
439;DHT22;206;48.782;9.252;2024-01-27T05:23:17;3.10;62.70
439;DHT22;206;48.782;9.252;2024-01-27T05:25:43;3.00;62.60
439;DHT22;206;48.782;9.252;2024-01-27T05:28:08;3.00;62.60
439;DHT22;206;48.782;9.252;2024-01-27T05:30:34;3.00;62.60
439;DHT22;206;48.782;9.252;2024-01-27T05:32:59;2.90;62.20
439;DHT22;206;48.782;9.252;2024-01-27T05:35:25;3.00;60.90
439;DHT22;206;48.782;9.252;2024-01-27T05:37:51;2.90;60.60
439;DHT22;206;48.782;9.252;2024-01-27T05:40:17;2.90;60.90
439;DHT22;206;48.782;9.252;2024-01-27T05:42:42;2.90;60.80
439;DHT22;206;48.782;9.252;2024-01-27T05:45:10;2.90;62.00
439;DHT22;206;48.782;9.252;2024-01-27T05:47:36;2.90;61.80
439;DHT22;206;48.782;9.252;2024-01-27T05:50:02;2.90;62.50
439;DHT22;206;48.782;9.252;2024-01-27T05:52:28;2.90;62.80
439;DHT22;206;48.782;9.252;2024-01-27T05:54:54;2.90;63.00
439;DHT22;206;48.782;9.252;2024-01-27T05:57:20;2.90;62.50
439;DHT22;206;48.782;9.252;2024-01-27T05:59:45;2.90;62.50
439;DHT22;206;48.782;9.252;2024-01-27T06:02:11;2.90;62.50
439;DHT22;206;48.782;9.252;2024-01-27T06:04:36;2.90;62.50
439;DHT22;206;48.782;9.252;2024-01-27T06:07:02;2.90;63.20
439;DHT22;206;48.782;9.252;2024-01-27T06:09:28;2.90;62.80
439;DHT22;206;48.782;9.252;2024-01-27T06:11:54;2.90;62.50
439;DHT22;206;48.782;9.252;2024-01-27T06:14:23;2.90;62.70
439;DHT22;206;48.782;9.252;2024-01-27T06:16:49;2.90;62.50
439;DHT22;206;48.782;9.252;2024-01-27T06:19:19;2.80;62.40
439;DHT22;206;48.782;9.252;2024-01-27T06:21:45;2.80;62.70
439;DHT22;206;48.782;9.252;2024-01-27T06:24:10;2.80;63.40
439;DHT22;206;48.782;9.252;2024-01-27T06:26:36;2.80;63.60
439;DHT22;206;48.782;9.252;2024-01-27T06:29:03;2.70;63.40
439;DHT22;206;48.782;9.252;2024-01-27T06:31:29;2.70;64.10
439;DHT22;206;48.782;9.252;2024-01-27T06:33:55;2.70;64.20
439;DHT22;206;48.782;9.252;2024-01-27T06:36:21;2.70;64.10
439;DHT22;206;48.782;9.252;2024-01-27T06:38:50;2.70;64.50
439;DHT22;206;48.782;9.252;2024-01-27T06:41:15;2.70;64.50
439;DHT22;206;48.782;9.252;2024-01-27T06:43:42;2.70;64.50
439;DHT22;206;48.782;9.252;2024-01-27T06:46:08;2.70;64.90
439;DHT22;206;48.782;9.252;2024-01-27T06:48:34;2.70;65.00
439;DHT22;206;48.782;9.252;2024-01-27T06:51:00;2.70;65.20
439;DHT22;206;48.782;9.252;2024-01-27T06:53:26;2.70;64.60
439;DHT22;206;48.782;9.252;2024-01-27T06:55:52;2.70;63.70
439;DHT22;206;48.782;9.252;2024-01-27T06:58:18;2.70;63.20
439;DHT22;206;48.782;9.252;2024-01-27T07:00:44;2.70;63.10
439;DHT22;206;48.782;9.252;2024-01-27T07:03:11;2.70;63.70
439;DHT22;206;48.782;9.252;2024-01-27T07:05:37;2.70;63.70
439;DHT22;206;48.782;9.252;2024-01-27T07:08:08;2.70;64.50
439;DHT22;206;48.782;9.252;2024-01-27T07:10:35;2.70;64.40
439;DHT22;206;48.782;9.252;2024-01-27T07:13:01;2.60;64.10
439;DHT22;206;48.782;9.252;2024-01-27T07:15:27;2.70;64.30
439;DHT22;206;48.782;9.252;2024-01-27T07:17:53;2.70;64.50
439;DHT22;206;48.782;9.252;2024-01-27T07:20:19;2.70;65.80
439;DHT22;206;48.782;9.252;2024-01-27T07:22:47;2.70;66.00
439;DHT22;206;48.782;9.252;2024-01-27T07:25:12;2.70;66.40
439;DHT22;206;48.782;9.252;2024-01-27T07:27:38;2.70;66.10
439;DHT22;206;48.782;9.252;2024-01-27T07:30:04;2.70;65.60
439;DHT22;206;48.782;9.252;2024-01-27T07:32:30;2.70;66.20
439;DHT22;206;48.782;9.252;2024-01-27T07:34:56;2.70;65.40
439;DHT22;206;48.782;9.252;2024-01-27T07:37:21;2.70;65.70
439;DHT22;206;48.782;9.252;2024-01-27T07:39:47;2.70;65.10
439;DHT22;206;48.782;9.252;2024-01-27T07:42:14;2.70;64.90
439;DHT22;206;48.782;9.252;2024-01-27T07:44:41;2.70;65.40
439;DHT22;206;48.782;9.252;2024-01-27T07:47:07;2.70;64.80
439;DHT22;206;48.782;9.252;2024-01-27T07:49:34;2.70;65.30
439;DHT22;206;48.782;9.252;2024-01-27T07:51:59;2.80;64.50
439;DHT22;206;48.782;9.252;2024-01-27T07:54:25;2.80;64.40
439;DHT22;206;48.782;9.252;2024-01-27T07:56:50;2.90;64.00
439;DHT22;206;48.782;9.252;2024-01-27T07:59:17;2.90;62.60
439;DHT22;206;48.782;9.252;2024-01-27T08:01:43;2.90;62.50
439;DHT22;206;48.782;9.252;2024-01-27T08:04:09;2.90;62.50
439;DHT22;206;48.782;9.252;2024-01-27T08:06:45;3.00;60.50
439;DHT22;206;48.782;9.252;2024-01-27T08:09:10;3.00;59.50
439;DHT22;206;48.782;9.252;2024-01-27T08:11:36;3.00;59.30
439;DHT22;206;48.782;9.252;2024-01-27T08:14:02;3.10;59.80
439;DHT22;206;48.782;9.252;2024-01-27T08:16:28;3.20;60.00
439;DHT22;206;48.782;9.252;2024-01-27T08:18:53;3.20;60.00
439;DHT22;206;48.782;9.252;2024-01-27T08:21:19;3.30;59.80
439;DHT22;206;48.782;9.252;2024-01-27T08:23:45;3.30;59.80
439;DHT22;206;48.782;9.252;2024-01-27T08:26:10;3.40;59.40
439;DHT22;206;48.782;9.252;2024-01-27T08:28:36;3.60;59.40
439;DHT22;206;48.782;9.252;2024-01-27T08:31:02;3.70;59.10
439;DHT22;206;48.782;9.252;2024-01-27T08:33:27;3.80;59.00
439;DHT22;206;48.782;9.252;2024-01-27T08:35:54;3.90;58.60
439;DHT22;206;48.782;9.252;2024-01-27T08:38:19;4.00;58.70
439;DHT22;206;48.782;9.252;2024-01-27T08:40:45;4.20;58.10
439;DHT22;206;48.782;9.252;2024-01-27T08:43:10;4.20;56.50
439;DHT22;206;48.782;9.252;2024-01-27T08:45:37;4.30;56.10
439;DHT22;206;48.782;9.252;2024-01-27T08:48:03;4.40;55.50
439;DHT22;206;48.782;9.252;2024-01-27T08:50:29;4.40;54.50
439;DHT22;206;48.782;9.252;2024-01-27T08:52:54;4.40;54.40
439;DHT22;206;48.782;9.252;2024-01-27T08:55:20;4.50;54.90
439;DHT22;206;48.782;9.252;2024-01-27T08:57:49;4.60;54.80
439;DHT22;206;48.782;9.252;2024-01-27T09:00:15;4.60;54.60
439;DHT22;206;48.782;9.252;2024-01-27T09:02:42;4.70;54.60
439;DHT22;206;48.782;9.252;2024-01-27T09:05:08;4.90;54.50
439;DHT22;206;48.782;9.252;2024-01-27T09:07:34;4.90;54.00
439;DHT22;206;48.782;9.252;2024-01-27T09:10:00;5.00;52.90
439;DHT22;206;48.782;9.252;2024-01-27T09:12:25;5.00;52.60
439;DHT22;206;48.782;9.252;2024-01-27T09:14:51;5.10;51.30
439;DHT22;206;48.782;9.252;2024-01-27T09:17:16;5.20;51.10
439;DHT22;206;48.782;9.252;2024-01-27T09:19:42;5.30;51.10
439;DHT22;206;48.782;9.252;2024-01-27T09:22:08;5.30;51.10
439;DHT22;206;48.782;9.252;2024-01-27T09:24:34;5.40;50.50
439;DHT22;206;48.782;9.252;2024-01-27T09:26:59;5.40;50.00
439;DHT22;206;48.782;9.252;2024-01-27T09:29:25;5.50;49.00
439;DHT22;206;48.782;9.252;2024-01-27T09:31:50;5.40;49.10
439;DHT22;206;48.782;9.252;2024-01-27T09:34:16;5.50;49.00
439;DHT22;206;48.782;9.252;2024-01-27T09:36:41;5.60;48.90
439;DHT22;206;48.782;9.252;2024-01-27T09:39:07;5.70;48.30
439;DHT22;206;48.782;9.252;2024-01-27T09:41:33;5.80;48.20
439;DHT22;206;48.782;9.252;2024-01-27T09:44:03;5.90;47.10
439;DHT22;206;48.782;9.252;2024-01-27T09:46:29;5.90;45.80
439;DHT22;206;48.782;9.252;2024-01-27T09:48:56;5.90;46.20
439;DHT22;206;48.782;9.252;2024-01-27T09:51:21;6.00;46.20
439;DHT22;206;48.782;9.252;2024-01-27T09:53:48;6.00;46.30
439;DHT22;206;48.782;9.252;2024-01-27T09:56:15;6.10;46.40
439;DHT22;206;48.782;9.252;2024-01-27T09:58:43;6.10;45.10
439;DHT22;206;48.782;9.252;2024-01-27T10:01:12;6.20;45.90
439;DHT22;206;48.782;9.252;2024-01-27T10:03:41;6.40;45.50
439;DHT22;206;48.782;9.252;2024-01-27T10:06:10;6.50;43.30
439;DHT22;206;48.782;9.252;2024-01-27T10:08:37;6.60;43.00
439;DHT22;206;48.782;9.252;2024-01-27T10:11:09;6.60;41.90
439;DHT22;206;48.782;9.252;2024-01-27T10:13:36;6.70;42.00
439;DHT22;206;48.782;9.252;2024-01-27T10:16:02;6.60;42.10
439;DHT22;206;48.782;9.252;2024-01-27T10:18:29;6.60;41.90
439;DHT22;206;48.782;9.252;2024-01-27T10:20:55;6.70;42.00
439;DHT22;206;48.782;9.252;2024-01-27T10:23:20;6.80;42.00
439;DHT22;206;48.782;9.252;2024-01-27T10:25:46;6.80;41.40
439;DHT22;206;48.782;9.252;2024-01-27T10:28:11;6.90;40.70
439;DHT22;206;48.782;9.252;2024-01-27T10:30:37;6.90;40.80
439;DHT22;206;48.782;9.252;2024-01-27T10:33:03;7.10;39.50
439;DHT22;206;48.782;9.252;2024-01-27T10:35:29;7.20;40.00
439;DHT22;206;48.782;9.252;2024-01-27T10:37:55;7.20;38.30
439;DHT22;206;48.782;9.252;2024-01-27T10:40:21;7.40;37.60
439;DHT22;206;48.782;9.252;2024-01-27T10:43:05;7.50;37.60
439;DHT22;206;48.782;9.252;2024-01-27T10:45:48;7.60;36.80
439;DHT22;206;48.782;9.252;2024-01-27T10:48:14;7.70;35.20
439;DHT22;206;48.782;9.252;2024-01-27T10:50:40;7.90;35.50
439;DHT22;206;48.782;9.252;2024-01-27T10:53:19;8.00;33.10
439;DHT22;206;48.782;9.252;2024-01-27T10:55:45;8.00;33.10
439;DHT22;206;48.782;9.252;2024-01-27T10:58:12;8.10;32.50
439;DHT22;206;48.782;9.252;2024-01-27T11:00:41;8.10;32.10
439;DHT22;206;48.782;9.252;2024-01-27T11:03:08;8.10;31.70
439;DHT22;206;48.782;9.252;2024-01-27T11:05:35;8.00;33.10
439;DHT22;206;48.782;9.252;2024-01-27T11:08:02;8.00;32.30
439;DHT22;206;48.782;9.252;2024-01-27T11:10:30;8.00;32.00
439;DHT22;206;48.782;9.252;2024-01-27T11:13:04;8.10;32.70
439;DHT22;206;48.782;9.252;2024-01-27T11:15:30;8.10;33.30
439;DHT22;206;48.782;9.252;2024-01-27T11:17:58;8.20;33.00
439;DHT22;206;48.782;9.252;2024-01-27T11:20:34;8.30;32.50
439;DHT22;206;48.782;9.252;2024-01-27T11:23:10;8.50;32.40
439;DHT22;206;48.782;9.252;2024-01-27T11:25:36;8.60;31.70
439;DHT22;206;48.782;9.252;2024-01-27T11:28:14;8.60;31.60
439;DHT22;206;48.782;9.252;2024-01-27T11:30:47;8.70;30.90
439;DHT22;206;48.782;9.252;2024-01-27T11:33:13;8.60;30.10
439;DHT22;206;48.782;9.252;2024-01-27T11:35:39;8.60;29.70
439;DHT22;206;48.782;9.252;2024-01-27T11:38:05;8.70;30.00
439;DHT22;206;48.782;9.252;2024-01-27T11:40:30;8.60;29.30
439;DHT22;206;48.782;9.252;2024-01-27T11:43:00;8.60;29.10
439;DHT22;206;48.782;9.252;2024-01-27T11:45:27;8.70;29.00
439;DHT22;206;48.782;9.252;2024-01-27T11:47:56;8.80;29.10
439;DHT22;206;48.782;9.252;2024-01-27T11:50:22;8.90;29.60
439;DHT22;206;48.782;9.252;2024-01-27T11:52:48;9.00;29.50
439;DHT22;206;48.782;9.252;2024-01-27T11:55:14;9.10;29.60
439;DHT22;206;48.782;9.252;2024-01-27T11:57:44;9.20;29.10
439;DHT22;206;48.782;9.252;2024-01-27T12:00:10;9.30;28.50
439;DHT22;206;48.782;9.252;2024-01-27T12:02:37;9.30;28.20
439;DHT22;206;48.782;9.252;2024-01-27T12:05:04;9.30;28.50
439;DHT22;206;48.782;9.252;2024-01-27T12:07:30;9.30;28.20
439;DHT22;206;48.782;9.252;2024-01-27T12:09:56;9.30;28.10
439;DHT22;206;48.782;9.252;2024-01-27T12:12:22;9.30;28.00
439;DHT22;206;48.782;9.252;2024-01-27T12:14:48;9.30;27.80
439;DHT22;206;48.782;9.252;2024-01-27T12:17:14;9.40;27.30
439;DHT22;206;48.782;9.252;2024-01-27T12:19:49;9.40;27.10
439;DHT22;206;48.782;9.252;2024-01-27T12:22:33;9.40;26.70
439;DHT22;206;48.782;9.252;2024-01-27T12:25:10;9.30;26.80
439;DHT22;206;48.782;9.252;2024-01-27T12:27:36;9.40;26.80
439;DHT22;206;48.782;9.252;2024-01-27T12:30:02;9.40;26.40
439;DHT22;206;48.782;9.252;2024-01-27T12:32:28;9.50;26.30
439;DHT22;206;48.782;9.252;2024-01-27T12:34:54;9.50;26.40
439;DHT22;206;48.782;9.252;2024-01-27T12:37:21;9.50;26.30
439;DHT22;206;48.782;9.252;2024-01-27T12:39:47;9.60;26.10
439;DHT22;206;48.782;9.252;2024-01-27T12:42:16;9.60;25.70
439;DHT22;206;48.782;9.252;2024-01-27T12:44:42;9.60;26.50
439;DHT22;206;48.782;9.252;2024-01-27T12:47:09;9.60;26.30
439;DHT22;206;48.782;9.252;2024-01-27T12:49:35;9.60;26.30
439;DHT22;206;48.782;9.252;2024-01-27T12:52:02;9.70;26.60
439;DHT22;206;48.782;9.252;2024-01-27T12:54:30;9.70;26.40
439;DHT22;206;48.782;9.252;2024-01-27T12:56:56;9.70;26.30
439;DHT22;206;48.782;9.252;2024-01-27T12:59:22;9.70;26.60
439;DHT22;206;48.782;9.252;2024-01-27T13:01:48;9.80;26.60
439;DHT22;206;48.782;9.252;2024-01-27T13:04:14;9.80;26.60
439;DHT22;206;48.782;9.252;2024-01-27T13:06:40;9.80;26.70
439;DHT22;206;48.782;9.252;2024-01-27T13:09:06;9.80;26.50
439;DHT22;206;48.782;9.252;2024-01-27T13:11:32;9.80;26.60
439;DHT22;206;48.782;9.252;2024-01-27T13:13:58;9.80;26.10
439;DHT22;206;48.782;9.252;2024-01-27T13:16:24;9.80;25.80
439;DHT22;206;48.782;9.252;2024-01-27T13:18:49;9.80;25.80
439;DHT22;206;48.782;9.252;2024-01-27T13:21:15;9.80;25.80
439;DHT22;206;48.782;9.252;2024-01-27T13:23:41;9.90;25.80
439;DHT22;206;48.782;9.252;2024-01-27T13:26:06;9.90;25.40
439;DHT22;206;48.782;9.252;2024-01-27T13:28:32;9.90;25.90
439;DHT22;206;48.782;9.252;2024-01-27T13:30:58;9.90;25.00
439;DHT22;206;48.782;9.252;2024-01-27T13:33:23;9.90;25.00
439;DHT22;206;48.782;9.252;2024-01-27T13:35:49;9.90;25.30
439;DHT22;206;48.782;9.252;2024-01-27T13:38:15;9.90;25.50
439;DHT22;206;48.782;9.252;2024-01-27T13:40:41;9.90;24.70
439;DHT22;206;48.782;9.252;2024-01-27T13:43:07;9.90;24.60
439;DHT22;206;48.782;9.252;2024-01-27T13:45:34;9.90;24.80
439;DHT22;206;48.782;9.252;2024-01-27T13:47:59;9.90;24.60
439;DHT22;206;48.782;9.252;2024-01-27T13:50:26;9.90;24.50
439;DHT22;206;48.782;9.252;2024-01-27T13:52:52;9.90;24.10
439;DHT22;206;48.782;9.252;2024-01-27T13:55:18;10.00;24.50
439;DHT22;206;48.782;9.252;2024-01-27T13:57:44;10.00;24.60
439;DHT22;206;48.782;9.252;2024-01-27T14:00:11;10.00;24.30
439;DHT22;206;48.782;9.252;2024-01-27T14:02:36;9.90;25.30
439;DHT22;206;48.782;9.252;2024-01-27T14:05:03;10.00;25.10
439;DHT22;206;48.782;9.252;2024-01-27T14:07:29;10.00;25.10
439;DHT22;206;48.782;9.252;2024-01-27T14:09:55;9.90;25.80
439;DHT22;206;48.782;9.252;2024-01-27T14:12:20;9.90;25.90
439;DHT22;206;48.782;9.252;2024-01-27T14:14:46;9.90;25.90
439;DHT22;206;48.782;9.252;2024-01-27T14:17:12;9.90;25.10
439;DHT22;206;48.782;9.252;2024-01-27T14:19:38;9.80;25.00
439;DHT22;206;48.782;9.252;2024-01-27T14:22:05;9.80;25.00
439;DHT22;206;48.782;9.252;2024-01-27T14:24:31;9.60;25.30
439;DHT22;206;48.782;9.252;2024-01-27T14:26:58;9.70;24.70
439;DHT22;206;48.782;9.252;2024-01-27T14:29:25;9.70;24.70
439;DHT22;206;48.782;9.252;2024-01-27T14:31:51;9.80;24.20
439;DHT22;206;48.782;9.252;2024-01-27T14:34:17;9.80;23.80
439;DHT22;206;48.782;9.252;2024-01-27T14:36:44;9.80;23.80
439;DHT22;206;48.782;9.252;2024-01-27T14:39:09;9.80;23.40
439;DHT22;206;48.782;9.252;2024-01-27T14:41:39;9.80;23.70
439;DHT22;206;48.782;9.252;2024-01-27T14:44:05;9.80;23.40
439;DHT22;206;48.782;9.252;2024-01-27T14:46:31;9.70;22.60
439;DHT22;206;48.782;9.252;2024-01-27T14:48:57;9.70;23.40
439;DHT22;206;48.782;9.252;2024-01-27T14:51:22;9.60;22.40
439;DHT22;206;48.782;9.252;2024-01-27T14:53:48;9.60;22.40
439;DHT22;206;48.782;9.252;2024-01-27T14:56:15;9.50;22.10
439;DHT22;206;48.782;9.252;2024-01-27T14:58:41;9.50;22.20
439;DHT22;206;48.782;9.252;2024-01-27T15:01:07;9.60;22.00
439;DHT22;206;48.782;9.252;2024-01-27T15:03:32;9.60;22.00
439;DHT22;206;48.782;9.252;2024-01-27T15:05:58;9.60;21.60
439;DHT22;206;48.782;9.252;2024-01-27T15:08:24;9.70;22.40
439;DHT22;206;48.782;9.252;2024-01-27T15:10:50;9.70;22.10
439;DHT22;206;48.782;9.252;2024-01-27T15:13:15;9.70;22.30
439;DHT22;206;48.782;9.252;2024-01-27T15:15:48;9.60;22.40
439;DHT22;206;48.782;9.252;2024-01-27T15:18:14;9.50;22.00
439;DHT22;206;48.782;9.252;2024-01-27T15:20:41;9.40;22.50
439;DHT22;206;48.782;9.252;2024-01-27T15:23:06;9.50;22.80
439;DHT22;206;48.782;9.252;2024-01-27T15:25:32;9.60;23.00
439;DHT22;206;48.782;9.252;2024-01-27T15:27:58;9.80;23.00
439;DHT22;206;48.782;9.252;2024-01-27T15:30:23;9.90;22.70
439;DHT22;206;48.782;9.252;2024-01-27T15:32:49;10.00;21.40
439;DHT22;206;48.782;9.252;2024-01-27T15:35:15;10.00;21.50
439;DHT22;206;48.782;9.252;2024-01-27T15:37:41;9.90;22.60
439;DHT22;206;48.782;9.252;2024-01-27T15:40:07;9.80;22.60
439;DHT22;206;48.782;9.252;2024-01-27T15:42:33;9.60;22.60
439;DHT22;206;48.782;9.252;2024-01-27T15:44:58;9.50;22.90
439;DHT22;206;48.782;9.252;2024-01-27T15:47:24;9.40;23.00
439;DHT22;206;48.782;9.252;2024-01-27T15:49:53;9.20;23.40
439;DHT22;206;48.782;9.252;2024-01-27T15:52:23;9.20;23.80
439;DHT22;206;48.782;9.252;2024-01-27T15:54:48;9.00;23.80
439;DHT22;206;48.782;9.252;2024-01-27T15:57:14;8.90;24.90
439;DHT22;206;48.782;9.252;2024-01-27T15:59:40;8.80;24.70
439;DHT22;206;48.782;9.252;2024-01-27T16:02:06;8.70;25.10
439;DHT22;206;48.782;9.252;2024-01-27T16:04:31;8.60;25.00
439;DHT22;206;48.782;9.252;2024-01-27T16:06:57;8.50;25.10
439;DHT22;206;48.782;9.252;2024-01-27T16:09:22;8.50;25.30
439;DHT22;206;48.782;9.252;2024-01-27T16:11:48;8.40;25.90
439;DHT22;206;48.782;9.252;2024-01-27T16:14:14;8.30;26.50
439;DHT22;206;48.782;9.252;2024-01-27T16:16:39;8.30;26.70
439;DHT22;206;48.782;9.252;2024-01-27T16:19:05;8.20;26.30
439;DHT22;206;48.782;9.252;2024-01-27T16:21:31;8.10;25.90
439;DHT22;206;48.782;9.252;2024-01-27T16:23:56;8.10;25.70
439;DHT22;206;48.782;9.252;2024-01-27T16:26:22;8.00;26.10
439;DHT22;206;48.782;9.252;2024-01-27T16:28:49;7.90;26.60
439;DHT22;206;48.782;9.252;2024-01-27T16:31:15;7.80;26.80
439;DHT22;206;48.782;9.252;2024-01-27T16:33:41;7.70;27.30
439;DHT22;206;48.782;9.252;2024-01-27T16:36:06;7.70;27.70
439;DHT22;206;48.782;9.252;2024-01-27T16:38:32;7.60;27.60
439;DHT22;206;48.782;9.252;2024-01-27T16:41:00;7.50;27.80
439;DHT22;206;48.782;9.252;2024-01-27T16:43:26;7.50;28.30
439;DHT22;206;48.782;9.252;2024-01-27T16:45:51;7.50;29.10